Time;durP1;ratioP1;P1;durP2;ratioP2;P2;SDS_P1;SDS_P2;PMS_P1;PMS_P2;Temp;Humidity;BMP_temperature;BMP_pressure;BME280_temperature;BME280_humidity;BME280_pressure;Samples;Min_cycle;Max_cycle;Signal;HPM_P1;HPM_P2
2021/11/01 00:00:42;;;;;;;4.93;1.73;;;16.10;1.00;;;;;;5048204;28;20410;-77
2021/11/01 00:03:08;;;;;;;6.87;2.13;;;;;;;;;;5063383;28;20416;-77
2021/11/01 00:06:02;;;;;;;5.47;1.90;;;16.10;1.00;;;;;;5054339;28;20898;-78
2021/11/01 00:08:32;;;;;;;8.30;2.17;;;;;;;;;;5054566;28;20863;-77
2021/11/01 00:10:58;;;;;;;7.20;2.23;;;;;;;;;;5050146;28;20898;-77
2021/11/01 00:13:24;;;;;;;4.33;1.80;;;;;;;;;;5065600;28;20971;-77
2021/11/01 00:16:02;;;;;;;4.40;2.10;;;;;;;;;;5054323;28;20442;-78
2021/11/01 00:18:32;;;;;;;5.87;2.10;;;;;;;;;;5053482;28;20413;-77
2021/11/01 00:21:02;;;;;;;6.83;2.40;;;;;;;;;;5053094;28;20903;-78
2021/11/01 00:23:28;;;;;;;8.10;2.37;;;15.80;1.00;;;;;;5035104;28;20411;-75
2021/11/01 00:25:55;;;;;;;19.63;2.20;;;;;;;;;;5051686;28;20405;-75
2021/11/01 00:28:21;;;;;;;5.60;1.70;;;;;;;;;;5053365;28;20399;-75
2021/11/01 00:30:47;;;;;;;17.67;3.27;;;;;;;;;;5051340;28;20430;-75
2021/11/01 00:33:14;;;;;;;10.13;2.30;;;;;;;;;;5049177;28;20793;-75
2021/11/01 00:35:40;;;;;;;9.33;2.40;;;;;;;;;;5062842;28;20461;-75
2021/11/01 00:38:06;;;;;;;12.90;2.60;;;;;;;;;;5073457;28;20470;-75
2021/11/01 00:40:33;;;;;;;4.53;1.77;;;;;;;;;;5051913;28;20546;-75
2021/11/01 00:43:03;;;;;;;11.80;1.97;;;;;;;;;;5053057;28;20396;-75
2021/11/01 00:45:29;;;;;;;6.47;2.10;;;;;;;;;;5053366;28;20385;-75
2021/11/01 00:47:55;;;;;;;6.13;2.47;;;;;;;;;;5051837;28;20902;-75
2021/11/01 00:50:21;;;;;;;9.40;2.60;;;;;;;;;;5055775;28;20401;-75
2021/11/01 00:52:48;;;;;;;14.70;2.80;;;;;;;;;;5051278;28;20419;-75
2021/11/01 00:55:24;;;;;;;23.20;3.50;;;;;;;;;;5052344;28;20465;-75
2021/11/01 00:57:50;;;;;;;9.50;2.40;;;;;;;;;;5056576;28;20966;-75
2021/11/01 01:00:16;;;;;;;8.73;2.17;;;;;;;;;;5051691;28;20406;-75
2021/11/01 01:02:45;;;;;;;9.20;2.13;;;15.20;1.00;;;;;;5053189;28;20406;-75
2021/11/01 01:05:11;;;;;;;6.53;2.07;;;;;;;;;;5048066;28;20457;-75
2021/11/01 01:07:50;;;;;;;10.13;2.27;;;;;;;;;;5061193;28;20880;-78
2021/11/01 01:10:20;;;;;;;8.30;2.50;;;;;;;;;;5064155;28;20811;-77
2021/11/01 01:12:50;;;;;;;5.90;2.43;;;;;;;;;;5047570;28;20384;-77
2021/11/01 01:15:23;;;;;;;10.30;3.03;;;;;;;;;;5056180;28;20387;-77
2021/11/01 01:17:50;;;;;;;3.73;2.20;;;;;;;;;;5053445;28;20443;-77
2021/11/01 01:20:19;;;;;;;24.87;3.93;;;;;;;;;;5039242;28;20410;-77
2021/11/01 01:22:46;;;;;;;10.57;2.70;;;;;;;;;;5053262;28;20418;-75
2021/11/01 01:25:28;;;;;;;5.53;1.97;;;14.90;1.00;;;;;;5053066;28;20418;-75
2021/11/01 01:27:55;;;;;;;5.13;2.20;;;;;;;;;;5019381;28;20431;-75
2021/11/01 01:30:22;;;;;;;16.63;2.60;;;;;;;;;;5048823;28;20411;-75
2021/11/01 01:32:48;;;;;;;17.13;3.00;;;;;;;;;;5041308;28;20473;-75
2021/11/01 01:35:14;;;;;;;2.57;0.90;;;;;;;;;;5047886;28;20421;-75
2021/11/01 01:37:42;;;;;;;2.77;1.10;;;14.60;1.00;;;;;;5056786;28;20414;-77
2021/11/01 01:40:09;;;;;;;2.70;1.00;;;14.40;1.00;;;;;;5048938;28;20405;-78
2021/11/01 01:42:36;;;;;;;11.47;1.53;;;14.30;1.00;;;;;;5042289;28;20473;-78
2021/11/01 01:45:04;;;;;;;3.53;1.00;;;14.20;1.00;;;;;;5057302;28;20422;-78
2021/11/01 01:47:30;;;;;;;7.43;1.27;;;;;;;;;;5043122;28;20442;-77
2021/11/01 01:49:56;;;;;;;6.63;1.23;;;;;;;;;;5076881;28;20393;-78
2021/11/01 01:52:23;;;;;;;6.53;1.07;;;;;;;;;;5041525;28;20411;-76
2021/11/01 01:54:49;;;;;;;6.43;1.30;;;;;;;;;;5048126;28;20417;-75
2021/11/01 01:57:15;;;;;;;26.80;2.57;;;;;;;;;;5054755;28;20465;-75
2021/11/01 01:59:43;;;;;;;8.30;1.23;;;;;;;;;;5063574;28;20782;-75
2021/11/01 02:02:09;;;;;;;7.97;1.70;;;;;;;;;;5055588;28;20491;-75
2021/11/01 02:04:37;;;;;;;10.00;1.53;;;;;;;;;;5060629;28;20417;-75
2021/11/01 02:07:13;;;;;;;9.07;2.10;;;;;;;;;;5076131;28;20421;-75
2021/11/01 02:09:51;;;;;;;14.10;1.80;;;;;;;;;;5056258;28;20401;-75
2021/11/01 02:12:28;;;;;;;8.17;1.20;;;13.30;1.00;;;;;;5059997;28;20433;-75
2021/11/01 02:14:58;;;;;;;26.33;2.20;;;13.20;1.00;;;;;;5068496;28;20465;-75
2021/11/01 02:17:29;;;;;;;6.33;1.30;;;13.20;1.00;;;;;;5069474;28;20479;-75
2021/11/01 02:19:57;;;;;;;11.63;1.57;;;;;;;;;;5060242;28;20415;-75
2021/11/01 02:22:33;;;;;;;7.23;1.33;;;13.10;1.00;;;;;;5055131;28;20396;-75
2021/11/01 02:25:04;;;;;;;14.07;1.90;;;;;;;;;;5052079;28;20937;-75
2021/11/01 02:27:33;;;;;;;7.63;1.07;;;13.00;1.00;;;;;;5049975;28;20513;-75
2021/11/01 02:29:59;;;;;;;56.20;5.90;;;12.90;1.00;;;;;;5067739;28;20570;-75
2021/11/01 02:32:26;;;;;;;10.57;1.03;;;12.90;1.00;;;;;;5047371;28;20479;-75
2021/11/01 02:34:53;;;;;;;3.13;0.80;;;12.80;1.00;;;;;;5048881;28;20434;-75
2021/11/01 02:37:20;;;;;;;3.17;0.90;;;12.80;1.00;;;;;;5061603;28;20560;-75
2021/11/01 02:39:56;;;;;;;8.37;1.50;;;12.80;1.00;;;;;;5055103;28;20512;-77
2021/11/01 02:42:28;;;;;;;7.93;1.53;;;12.70;1.00;;;;;;5053414;28;20818;-77
2021/11/01 02:44:59;;;;;;;12.37;1.43;;;12.70;1.00;;;;;;5042637;28;20513;-77
2021/11/01 02:47:27;;;;;;;12.43;1.80;;;12.60;1.00;;;;;;5057014;28;20424;-77
2021/11/01 02:49:53;;;;;;;5.30;1.23;;;;;;;;;;5066453;28;20425;-78
2021/11/01 02:52:20;;;;;;;6.23;1.03;;;;;;;;;;5057144;28;20972;-77
2021/11/01 02:54:46;;;;;;;15.03;1.77;;;;;;;;;;5055939;28;20402;-74
2021/11/01 02:57:13;;;;;;;26.50;2.83;;;12.50;1.00;;;;;;5053650;28;20469;-75
2021/11/01 02:59:44;;;;;;;5.20;1.10;;;;;;;;;;5053774;28;21023;-75
2021/11/01 03:02:14;;;;;;;7.67;1.37;;;;;;;;;;5058332;28;20452;-75
2021/11/01 03:04:41;;;;;;;8.23;1.43;;;;;;;;;;5075502;28;20386;-75
2021/11/01 03:07:07;;;;;;;12.90;2.27;;;;;;;;;;5068265;28;20507;-75
2021/11/01 03:09:36;;;;;;;6.80;1.40;;;12.50;1.00;;;;;;5049304;28;20450;-77
2021/11/01 03:12:06;;;;;;;5.50;1.23;;;12.50;1.00;;;;;;5055287;28;20410;-77
2021/11/01 03:14:40;;;;;;;3.80;0.83;;;12.50;1.00;;;;;;5055415;28;20458;-77
2021/11/01 03:17:08;;;;;;;7.17;1.20;;;12.40;1.00;;;;;;5054861;28;20536;-77
2021/11/01 03:19:37;;;;;;;7.03;1.47;;;12.50;1.00;;;;;;5041481;28;20423;-77
2021/11/01 03:22:14;;;;;;;5.83;1.33;;;;;;;;;;5035283;28;20454;-77
2021/11/01 03:25:03;;;;;;;5.10;1.27;;;12.40;1.00;;;;;;5048827;28;20420;-77
2021/11/01 03:27:39;;;;;;;13.13;1.27;;;12.40;1.00;;;;;;5053239;28;20431;-77
2021/11/01 03:30:26;;;;;;;37.13;4.30;;;12.40;1.00;;;;;;5043765;28;20428;-77
2021/11/01 03:32:52;;;;;;;7.40;1.23;;;;;;;;;;5045685;28;20445;-77
2021/11/01 03:35:19;;;;;;;4.47;1.10;;;12.30;1.00;;;;;;5041299;28;20430;-77
2021/11/01 03:37:46;;;;;;;11.60;1.90;;;;;;;;;;5045083;28;20491;-77
2021/11/01 03:40:18;;;;;;;5.73;1.10;;;12.30;1.00;;;;;;5048784;28;20406;-77
2021/11/01 03:42:54;;;;;;;9.27;1.63;;;;;;;;;;5054493;28;20414;-77
2021/11/01 03:45:22;;;;;;;17.83;2.10;;;;;;;;;;5057142;28;20889;-77
2021/11/01 03:47:53;;;;;;;3.13;1.07;;;12.30;1.00;;;;;;5064365;28;20909;-77
2021/11/01 03:52:51;;;;;;;4.87;1.00;;;12.30;1.00;;;;;;5061298;28;20368;-77
2021/11/01 03:55:19;;;;;;;9.53;1.13;;;12.30;1.00;;;;;;5052374;28;20560;-75
2021/11/01 03:57:46;;;;;;;5.90;1.20;;;12.30;1.00;;;;;;5039461;28;20437;-75
2021/11/01 04:00:12;;;;;;;7.30;1.63;;;;;;;;;;5052657;28;20446;-75
2021/11/01 04:02:46;;;;;;;7.80;1.60;;;12.30;1.00;;;;;;5054156;28;20413;-75
2021/11/01 04:05:12;;;;;;;8.63;1.33;;;;;;;;;;5054010;28;20936;-75
2021/11/01 04:07:39;;;;;;;15.90;2.17;;;;;;;;;;5051465;28;20433;-75
2021/11/01 04:10:07;;;;;;;12.37;1.93;;;;;;;;;;5044083;28;20435;-75
2021/11/01 04:12:33;;;;;;;9.13;1.60;;;;;;;;;;5048900;28;20429;-75
2021/11/01 04:15:11;;;;;;;6.20;1.20;;;;;;;;;;5052970;28;20452;-75
2021/11/01 04:20:12;;;;;;;14.33;1.37;;;12.20;1.00;;;;;;5053301;28;20965;-75
2021/11/01 04:22:39;;;;;;;5.30;1.20;;;;;;;;;;5064959;28;20444;-75
2021/11/01 04:25:06;;;;;;;9.50;1.43;;;;;;;;;;5073894;28;20474;-77
2021/11/01 04:27:32;;;;;;;6.23;1.13;;;;;;;;;;5054113;28;20759;-77
2021/11/01 04:30:00;;;;;;;3.60;0.77;;;;;;;;;;5066423;28;20512;-77
2021/11/01 04:32:35;;;;;;;6.33;0.93;;;;;;;;;;5064221;28;20414;-77
2021/11/01 04:35:08;;;;;;;6.47;1.20;;;12.10;1.00;;;;;;5040954;28;20414;-77
2021/11/01 04:37:34;;;;;;;5.40;0.90;;;;;;;;;;5061407;28;20460;-79
2021/11/01 04:40:12;;;;;;;5.03;1.20;;;;;;;;;;5032898;28;20430;-76
2021/11/01 04:54:26;;;;;;;9.53;1.80;;;;;;;;;;5031599;28;20815;-76
2021/11/01 04:56:53;;;;;;;6.93;1.33;;;;;;;;;;5039394;28;21039;-75
2021/11/01 04:59:20;;;;;;;21.87;2.90;;;;;;;;;;5038592;28;20475;-75
2021/11/01 05:01:50;;;;;;;9.13;1.67;;;;;;;;;;5045382;28;20437;-75
2021/11/01 05:04:21;;;;;;;5.40;1.30;;;11.90;1.00;;;;;;5031234;28;20861;-75
2021/11/01 05:06:56;;;;;;;10.87;1.70;;;;;;;;;;5030629;28;20496;-75
2021/11/01 05:09:27;;;;;;;16.27;1.77;;;;;;;;;;5028061;28;20784;-77
2021/11/01 05:14:29;;;;;;;2.53;1.23;;;11.90;1.00;;;;;;5034551;28;20450;-77
2021/11/01 05:17:11;;;;;;;7.50;1.77;;;;;;;;;;5039142;28;20459;-77
2021/11/01 05:19:44;;;;;;;4.37;1.43;;;;;;;;;;5036249;28;20518;-77
2021/11/01 05:25:16;;;;;;;11.10;1.47;;;;;;;;;;5017248;28;20448;-76
2021/11/01 05:30:39;;;;;;;9.57;1.40;;;;;;;;;;5004993;28;20411;-75
2021/11/01 05:35:39;;;;;;;3.90;1.30;;;11.80;1.00;;;;;;5015178;28;20467;-76
2021/11/01 05:38:06;;;;;;;11.63;2.43;;;11.90;1.00;;;;;;5004490;28;20442;-75
2021/11/01 05:40:34;;;;;;;10.73;2.00;;;11.90;1.00;;;;;;5008088;28;20412;-75
2021/11/01 05:43:01;;;;;;;4.50;1.50;;;11.90;1.00;;;;;;5008113;28;20437;-75
2021/11/01 05:45:27;;;;;;;8.17;2.03;;;;;;;;;;5020465;28;20764;-75
2021/11/01 05:47:58;;;;;;;12.60;1.60;;;;;;;;;;5014246;28;20433;-75
2021/11/01 05:50:26;;;;;;;23.20;2.70;;;11.80;1.00;;;;;;5028184;28;20442;-76
2021/11/01 05:52:53;;;;;;;7.70;2.20;;;;;;;;;;5034555;28;20489;-76
2021/11/01 05:58:11;;;;;;;9.10;1.80;;;;;;;;;;5006107;28;20949;-77
2021/11/01 06:03:48;;;;;;;5.13;1.70;;;;;;;;;;5055847;28;20907;-77
2021/11/01 06:13:57;;;;;;;7.13;2.00;;;11.80;1.00;;;;;;5053099;28;20493;-77
2021/11/01 06:16:27;;;;;;;7.40;2.17;;;;;;;;;;5052878;28;20457;-77
2021/11/01 06:19:02;;;;;;;6.60;2.00;;;;;;;;;;5055096;28;20449;-78
2021/11/01 06:21:47;;;;;;;9.03;2.57;;;;;;;;;;5071739;28;20896;-78
2021/11/01 06:27:12;;;;;;;13.53;2.90;;;;;;;;;;5012503;28;20412;-78
2021/11/01 06:40:41;;;;;;;13.83;3.30;;;;;;;;;;5029089;28;20417;-75
2021/11/01 06:54:27;;;;;;;19.93;4.97;;;;;;;;;;5005040;28;20421;-76
2021/11/01 07:18:57;;;;;;;14.40;3.43;;;;;;;;;;5002840;28;20482;-77
2021/11/01 08:22:06;;;;;;;17.67;3.90;;;;;;;;;;5062156;28;20420;-77
2021/11/01 08:25:07;;;;;;;9.83;3.43;;;;;;;;;;5039910;28;20423;-77
2021/11/01 09:04:14;;;;;;;31.93;4.67;;;;;;;;;;5039080;28;20816;-77
2021/11/01 09:20:28;;;;;;;13.17;2.37;;;;;;;;;;5072634;28;20828;-75
2021/11/01 09:41:22;;;;;;;6.57;1.73;;;;;;;;;;5052393;28;20410;-75
2021/11/01 09:43:51;;;;;;;6.73;1.63;;;;;;;;;;5051095;28;20932;-77
2021/11/01 09:46:19;;;;;;;10.40;1.87;;;;;;;;;;5052149;28;20890;-77
2021/11/01 09:48:45;;;;;;;5.67;1.53;;;;;;;;;;5052100;28;20499;-77
2021/11/01 09:51:11;;;;;;;8.63;1.53;;;;;;;;;;5052096;28;20385;-77
2021/11/01 09:53:41;;;;;;;27.70;3.23;;;;;;;;;;5051373;28;20380;-77
2021/11/01 09:59:13;;;;;;;8.47;1.90;;;;;;;;;;5034094;28;20404;-77
2021/11/01 10:01:57;;;;;;;10.70;1.57;;;;;;;;;;5033697;28;20410;-77
2021/11/01 10:04:26;;;;;;;5.50;1.20;;;13.90;1.00;;;;;;5016544;28;20859;-77
2021/11/01 10:07:31;;;;;;;6.03;1.23;;;13.80;1.00;;;;;;5033539;28;20401;-77
2021/11/01 10:09:51;;;;;;;15.30;1.80;;;13.80;1.00;;;;;;5030182;28;20923;-77
2021/11/01 10:12:20;;;;;;;6.60;1.17;;;13.90;1.00;;;;;;5033716;28;20419;-75
2021/11/01 10:14:57;;;;;;;16.87;1.70;;;;;;;;;;5033514;28;20977;-75
2021/11/01 10:17:34;;;;;;;5.53;1.40;;;;;;;;;;5033063;28;20620;-75
2021/11/01 10:20:00;;;;;;;3.87;0.97;;;;;;;;;;5033419;28;20421;-75
2021/11/01 10:22:32;;;;;;;7.43;1.40;;;;;;;;;;5033136;28;20398;-75
2021/11/01 10:24:58;;;;;;;9.73;1.83;;;;;;;;;;5016577;28;20397;-75
2021/11/01 10:27:35;;;;;;;4.70;1.47;;;13.90;1.00;;;;;;5033402;28;20537;-75
2021/11/01 10:30:22;;;;;;;4.97;1.13;;;;;;;;;;5033212;28;20402;-75
2021/11/01 10:32:50;;;;;;;8.27;1.67;;;13.90;1.00;;;;;;5033023;28;20430;-75
2021/11/01 10:35:34;;;;;;;9.87;1.73;;;14.00;1.00;;;;;;5036400;28;20820;-75
2021/11/01 10:38:03;;;;;;;4.10;0.90;;;14.10;1.00;;;;;;5054885;28;20418;-75
2021/11/01 10:40:31;;;;;;;8.47;1.77;;;;;;;;;;5055076;28;20380;-75
2021/11/01 10:43:15;;;;;;;3.23;1.43;;;;;;;;;;5055384;28;20413;-77
2021/11/01 11:11:32;;;;;;;6.43;1.60;;;;;;;;;;5032336;28;20429;-77
2021/11/01 11:25:31;;;;;;;7.03;1.23;;;14.40;1.00;;;;;;4934947;29;20411;-77
2021/11/01 11:49:10;;;;;;;6.33;1.07;;;15.20;1.00;;;;;;4992275;28;20428;-75
2021/11/01 11:51:37;;;;;;;9.63;1.70;;;;;;;;;;4992243;28;20735;-75
2021/11/01 11:54:06;;;;;;;7.80;1.67;;;;;;;;;;4992156;28;20395;-75
2021/11/01 11:56:43;;;;;;;9.63;1.50;;;15.30;1.00;;;;;;5036068;28;20796;-75
2021/11/01 11:59:12;;;;;;;17.13;1.93;;;15.40;1.00;;;;;;5053690;28;20778;-77
2021/11/01 12:01:43;;;;;;;6.00;1.30;;;15.30;1.00;;;;;;5053539;28;20428;-77
2021/11/01 12:04:27;;;;;;;8.67;1.57;;;15.40;1.00;;;;;;5053347;28;20443;-77
2021/11/01 12:07:03;;;;;;;4.40;1.17;;;;;;;;;;5053521;28;20430;-77
2021/11/01 12:17:28;;;;;;;14.23;1.50;;;14.70;1.00;;;;;;5056846;28;20457;-76
2021/11/01 12:20:03;;;;;;;4.83;0.90;;;14.60;1.00;;;;;;5062451;28;20405;-75
2021/11/01 12:22:31;;;;;;;10.13;1.57;;;;;;;;;;5053821;28;20424;-75
2021/11/01 12:24:58;;;;;;;5.40;1.17;;;;;;;;;;5053725;28;20972;-75
2021/11/01 12:27:25;;;;;;;6.57;1.40;;;;;;;;;;5060220;28;20427;-75
2021/11/01 12:29:51;;;;;;;9.33;1.50;;;;;;;;;;5060792;28;20422;-78
2021/11/01 12:32:21;;;;;;;14.20;1.17;;;;;;;;;;5060364;28;20395;-78
2021/11/01 12:37:33;;;;;;;4.93;1.07;;;14.50;1.00;;;;;;5052514;28;20968;-78
2021/11/01 12:59:40;;;;;;;3.53;1.10;;;;;;;;;;5060599;28;20497;-77
2021/11/01 13:02:26;;;;;;;3.53;1.10;;;14.40;1.00;;;;;;5072338;28;20409;-77
2021/11/01 13:04:53;;;;;;;7.40;1.03;;;14.40;1.00;;;;;;5048426;28;20757;-77
2021/11/01 13:07:38;;;;;;;4.83;1.13;;;14.30;1.00;;;;;;5060030;28;20426;-77
2021/11/01 13:10:15;;;;;;;5.67;1.40;;;;;;;;;;5063062;28;20397;-77
2021/11/01 13:18:36;;;;;;;11.70;1.33;;;;;;;;;;5013048;28;20462;-77
2021/11/01 13:21:13;;;;;;;20.00;2.27;;;14.50;1.00;;;;;;5011186;28;20411;-78
2021/11/01 13:24:08;;;;;;;3.83;1.00;;;14.60;1.00;;;;;;5011328;28;20907;-77
2021/11/01 13:29:17;;;;;;;6.00;1.17;;;14.70;1.00;;;;;;5014231;28;20466;-76
2021/11/01 13:40:15;;;;;;;18.47;1.57;;;14.80;1.00;;;;;;5015013;28;20414;-77
2021/11/01 13:43:00;;;;;;;16.70;1.93;;;;;;;;;;5013817;28;20530;-76
2021/11/01 13:45:27;;;;;;;8.80;1.63;;;;;;;;;;5015301;28;20442;-77
2021/11/01 13:47:55;;;;;;;5.90;1.47;;;14.70;1.00;;;;;;5023580;28;20397;-78
2021/11/01 13:50:39;;;;;;;5.63;1.30;;;14.50;1.00;;;;;;5052318;28;20512;-77
2021/11/01 13:53:12;;;;;;;3.50;1.03;;;14.40;1.00;;;;;;5068140;28;20511;-77
2021/11/01 13:55:51;;;;;;;6.57;1.50;;;;;;;;;;5069749;28;20408;-77
2021/11/01 14:15:11;;;;;;;7.47;1.40;;;;;;;;;;5034318;28;20434;-74
2021/11/01 14:34:22;;;;;;;4.30;1.43;;;;;;;;;;5026487;28;20471;-84
2021/11/01 15:13:32;;;;;;;8.10;1.33;;;;;;;;;;5044613;28;20836;-76
2021/11/01 15:16:24;;;;;;;1.53;0.80;;;;;;;;;;5054402;28;20417;-79
2021/11/01 15:24:52;;;;;;;4.90;1.20;;;;;;;;;;5054434;28;20778;-81
2021/11/01 15:27:43;;;;;;;1.87;0.77;;;;;;;;;;5061930;28;20436;-79
2021/11/01 15:33:24;;;;;;;28.70;2.90;;;;;;;;;;5042223;28;20583;-82
2021/11/01 16:20:33;;;;;;;2.97;1.10;;;;;;;;;;5055492;28;20425;-78
2021/11/01 16:25:41;;;;;;;10.67;1.40;;;;;;;;;;5036778;28;20795;-76
2021/11/01 16:28:09;;;;;;;0.50;0.50;;;;;;;;;;5057908;28;20426;-77
2021/11/01 16:30:53;;;;;;;4.53;0.90;;;;;;;;;;5053727;28;20442;-77
2021/11/01 16:33:21;;;;;;;3.40;0.80;;;;;;;;;;5039203;28;20434;-73
2021/11/01 16:39:31;;;;;;;1.87;0.90;;;9.70;1.00;;;;;;5011923;28;20407;-78
2021/11/01 16:42:03;;;;;;;5.57;0.90;;;;;;;;;;5011930;28;20448;-79
2021/11/01 16:44:41;;;;;;;4.33;1.23;;;;;;;;;;5011560;28;20863;-79
2021/11/01 16:47:17;;;;;;;2.53;0.80;;;;;;;;;;5022146;28;20803;-77
2021/11/01 16:49:46;;;;;;;3.50;0.90;;;;;;;;;;5017291;28;20510;-76
2021/11/01 16:52:15;;;;;;;9.83;1.07;;;;;;;;;;5014946;28;20458;-77
2021/11/01 16:54:49;;;;;;;3.43;1.17;;;9.30;1.00;;;;;;5003198;28;20434;-77
2021/11/01 16:57:31;;;;;;;10.73;1.70;;;9.20;1.00;;;;;;5018517;28;20502;-78
2021/11/01 17:03:27;;;;;;;6.70;1.53;;;;;;;;;;5030540;28;20395;-78
2021/11/01 17:24:03;;;;;;;6.80;1.27;;;8.70;1.00;;;;;;5011401;28;20419;-78
2021/11/01 17:26:34;;;;;;;3.10;1.00;;;8.70;1.00;;;;;;5011344;28;20491;-78
2021/11/01 18:38:20;;;;;;;21.27;2.90;;;;;;;;;;4983580;28;20487;-76
2021/11/01 18:51:08;;;;;;;2.10;1.03;;;7.70;1.00;;;;;;4971263;28;20416;-77
2021/11/01 18:53:54;;;;;;;3.90;1.33;;;7.70;1.00;;;;;;4975098;28;20402;-77
2021/11/01 18:56:28;;;;;;;3.33;1.33;;;7.70;1.00;;;;;;4974575;28;20489;-77
2021/11/01 18:59:07;;;;;;;5.03;1.43;;;7.70;1.00;;;;;;4975167;28;20858;-77
2021/11/01 19:04:41;;;;;;;5.90;1.60;;;;;;;;;;4980301;28;20420;-77
2021/11/01 19:07:17;;;;;;;4.53;1.43;;;;;;;;;;4994343;28;20424;-78
2021/11/01 19:16:03;;;;;;;9.80;2.20;;;;;;;;;;4993391;28;21017;-76
2021/11/01 20:06:55;;;;;;;9.30;1.97;;;6.60;1.00;;;;;;5018143;28;20953;-76
2021/11/01 21:26:23;;;;;;;4.80;2.30;;;;;;;;;;5038227;28;20548;-76
2021/11/01 21:29:05;;;;;;;14.40;1.90;;;;;;;;;;5034098;28;20873;-76
2021/11/01 21:31:32;;;;;;;8.80;2.70;;;;;;;;;;5033146;28;20465;-76
2021/11/01 21:34:00;;;;;;;7.53;1.83;;;;;;;;;;5022454;28;20426;-76
2021/11/01 21:36:35;;;;;;;11.80;2.03;;;;;;;;;;5033465;28;20467;-76
2021/11/01 21:39:01;;;;;;;4.33;1.93;;;;;;;;;;5033194;28;20426;-76
2021/11/01 21:41:29;;;;;;;5.77;1.80;;;;;;;;;;5033475;28;20797;-76
2021/11/01 21:43:56;;;;;;;4.73;1.73;;;;;;;;;;5033255;28;20928;-77
2021/11/01 21:46:22;;;;;;;14.97;3.73;;;;;;;;;;5034376;28;20415;-76
2021/11/01 21:48:50;;;;;;;2.70;1.90;;;;;;;;;;5033947;28;20411;-76
2021/11/01 21:51:17;;;;;;;2.43;1.33;;;7.00;1.00;;;;;;5037132;28;20418;-76
2021/11/01 21:53:49;;;;;;;14.73;2.80;;;7.10;1.00;;;;;;5037351;28;20504;-76
2021/11/01 21:56:17;;;;;;;12.47;3.07;;;;;;;;;;5037128;28;20418;-76
2021/11/01 21:59:06;;;;;;;5.23;2.17;;;;;;;;;;5030431;28;20414;-76
2021/11/01 22:18:30;;;;;;;6.33;2.97;;;;;;;;;;5053170;28;20795;-76
2021/11/01 22:21:04;;;;;;;7.47;1.80;;;;;;;;;;5017166;28;20439;-76
2021/11/01 22:34:35;;;;;;;7.80;2.40;;;;;;;;;;5036399;28;20534;-76
2021/11/01 22:40:39;;;;;;;11.10;1.90;;;7.00;1.00;;;;;;5039334;28;20422;-76
2021/11/01 22:43:13;;;;;;;9.50;2.47;;;;;;;;;;5019144;28;20438;-76
2021/11/01 22:48:35;;;;;;;17.53;2.53;;;;;;;;;;5045307;28;20427;-76
2021/11/01 22:55:36;;;;;;;16.70;2.40;;;;;;;;;;5036335;28;20391;-76
2021/11/01 22:56:52;;;;;;;16.60;2.73;;;;;;;;;;5036836;28;20507;-76
2021/11/01 22:59:23;;;;;;;7.70;2.40;;;;;;;;;;5051812;28;20411;-76
2021/11/01 23:01:53;;;;;;;5.20;2.27;;;;;;;;;;5036052;28;20957;-77
2021/11/01 23:04:33;;;;;;;6.30;2.70;;;;;;;;;;5035804;28;20411;-76
2021/11/01 23:32:11;;;;;;;12.27;3.97;;;;;;;;;;5035617;28;20421;-76
2021/11/01 23:34:41;;;;;;;18.90;3.77;;;;;;;;;;5046848;28;20461;-76
2021/11/01 23:37:11;;;;;;;44.90;6.70;;;;;;;;;;5035132;28;20524;-75
2021/11/01 23:39:38;;;;;;;24.27;5.00;;;;;;;;;;5034304;28;20752;-76
2021/11/01 23:42:04;;;;;;;20.03;3.13;;;;;;;;;;5035284;28;20484;-76
2021/11/01 23:44:30;;;;;;;6.53;2.57;;;;;;;;;;5034935;28;20400;-77
2021/11/01 23:47:05;;;;;;;16.10;4.13;;;;;;;;;;5034978;28;20423;-76
2021/11/01 23:49:35;;;;;;;3.63;2.50;;;;;;;;;;5031260;28;20423;-76
2021/11/01 23:52:09;;;;;;;16.80;3.80;;;;;;;;;;5039496;28;20472;-76
2021/11/01 23:54:47;;;;;;;6.27;2.60;;;;;;;;;;5037480;28;20919;-76
2021/11/01 23:57:15;;;;;;;11.33;3.40;;;7.00;1.00;;;;;;5039998;28;20875;-76
2021/11/01 23:59:53;;;;;;;5.87;3.37;;;;;;;;;;5033477;28;20431;-76
